Latest Weather Observations for Dum In Mirrie

IDD60901

Issued at 5:55 pm CST Monday 28 July 2014 (issued every 10 minutes, with the page automatically refreshed every 10 minutes)

About weather observations | Map of Darwin area stations | Latest observations for Darwin area | Other Formats
Station Details ID: 014277 Name: DUM IN MIRRIE AIRSTRIP Lat: -12.63 Lon: 130.37 Height: 3.5 m
Data from the previous 72 hours. | See also: Recent months at Dum In Mirrie
Date/Time
CST
Tmp

°C
App
Tmp
°C
Dew
Point
°C
Rel
Hum
%
Delta-T

°C
Wind Press
QNH
hPa
Press
MSL
hPa
Rain
since
9 am
mm
Dir
 
Spd
km/h
Gust
km/h
Spd
kts
Gust
kts
28/05:30pm 27.0 29.0 19.1 62 5.1 NW 7 13 4 7 1012.4 1012.4 0.0
28/05:00pm 27.4 29.0 19.2 61 5.3 NNW 9 17 5 9 1012.3 - 0.0
28/04:30pm 27.3 28.4 18.9 60 5.4 NNW 11 17 6 9 1012.2 1012.2 0.0
28/04:00pm 27.9 29.2 19.4 60 5.5 NW 11 20 6 11 1012.3 - 0.0
28/03:30pm 28.1 29.0 19.3 58 5.7 NNW 13 20 7 11 1012.3 1012.3 0.0
28/03:00pm 28.6 28.5 18.7 55 6.4 NNW 17 24 9 13 1012.5 1012.5 0.0
28/02:30pm 32.4 30.2 12.1 29 12.0 ENE 15 26 8 14 1012.8 1012.8 0.0
28/02:00pm 32.7 31.4 13.8 31 11.5 E 13 24 7 13 1013.2 - 0.0
28/01:30pm 31.9 30.5 14.5 34 10.6 E 15 24 8 13 1013.7 1013.7 0.0
28/01:00pm 31.3 29.6 13.6 34 10.6 ENE 15 22 8 12 1014.1 - 0.0
28/12:30pm 31.0 29.1 14.2 36 10.2 E 17 24 9 13 1014.6 1014.6 0.0
28/12:00pm 30.1 27.9 13.4 36 10.0 E 17 30 9 16 1015.2 1015.2 0.0
28/11:30am 29.7 27.5 14.3 39 9.3 E 19 28 10 15 1015.8 1015.8 0.0
28/11:00am 28.9 28.4 15.8 45 8.1 E 13 17 7 9 1016.3 - 0.0
28/10:30am 28.7 28.6 15.9 45 7.9 E 11 20 6 11 1016.5 1016.5 0.0
28/10:00am 28.3 29.8 18.1 54 6.5 E 7 11 4 6 1016.6 - 0.0
28/09:30am 26.9 29.4 19.8 65 4.6 ESE 6 11 3 6 1016.6 1016.6 0.0
28/09:00am 25.6 27.8 19.7 70 3.8 E 7 11 4 6 1016.6 1016.6 0.0
28/08:30am 24.3 27.1 20.4 79 2.5 ESE 6 9 3 5 1016.5 1016.5 0.0
28/08:00am 22.5 25.8 20.8 90 1.1 ESE 4 7 2 4 1016.1 - 0.0
28/07:30am 21.0 23.7 20.2 95 0.5 E 6 9 3 5 1015.8 1015.8 0.0
28/07:00am 19.6 21.7 18.9 96 0.4 E 6 7 3 4 1015.5 - 0.0
28/06:30am 18.9 20.9 17.9 94 0.6 E 4 6 2 3 1015.2 1015.2 0.0
28/06:00am 19.8 22.3 19.1 96 0.4 ESE 4 7 2 4 1015.0 1015.0 0.0
28/05:30am 19.6 22.4 18.8 95 0.5 SE 2 4 1 2 1014.6 1014.6 0.0
28/05:00am 19.8 22.2 18.8 94 0.6 ESE 4 4 2 2 1014.5 - 0.0
28/04:30am 19.9 22.3 18.9 94 0.6 E 4 4 2 2 1014.4 1014.4 0.0
28/04:00am 19.7 22.0 18.5 93 0.7 ENE 4 4 2 2 1014.3 - 0.0
28/03:30am 20.2 22.7 19.0 93 0.8 E 4 6 2 3 1014.4 1014.4 0.0
28/03:00am 20.8 23.9 19.6 93 0.8 E 2 4 1 2 1014.6 1014.6 0.0
28/02:30am 20.8 23.7 19.8 94 0.6 E 4 6 2 3 1014.9 1014.9 0.0
28/02:00am 20.9 24.2 19.9 94 0.6 SSE 2 4 1 2 1014.8 - 0.0
28/01:30am 20.8 24.0 19.8 94 0.6 S 2 4 1 2 1015.1 1015.1 0.0
28/01:00am 21.1 24.8 19.9 93 0.8 CALM 0 0 0 0 1015.2 - 0.0
28/12:30am 21.0 24.3 19.1 89 1.2 CALM 0 0 0 0 1015.4 1015.4 0.0
28/12:00am 21.8 25.4 19.7 88 1.3 SSE 0 0 0 0 1015.5 1015.5 0.0
 
Date/Time
CST
Tmp

°C
App
Tmp
°C
Dew
Point
°C
Rel
Hum
%
Delta-T

°C
Wind Press
QNH
hPa
Press
MSL
hPa
Rain
since
9 am
mm
Dir
 
Spd
km/h
Gust
km/h
Spd
kts
Gust
kts
27/11:30pm 22.7 26.0 20.0 85 1.7 S 2 4 1 2 1015.6 1015.6 0.0
27/11:00pm 23.2 26.6 20.2 83 1.9 S 2 4 1 2 1015.7 - 0.0
27/10:30pm 24.1 27.7 20.6 81 2.3 S 2 4 1 2 1015.7 1015.7 0.0
27/10:00pm 24.7 28.5 21.0 80 2.4 S 2 7 1 4 1015.8 - 0.0
27/09:30pm 24.2 27.4 20.5 80 2.4 SSW 4 6 2 3 1015.6 1015.6 0.0
27/09:00pm 24.0 27.5 20.3 80 2.4 SSW 2 4 1 2 1015.5 1015.5 0.0
27/08:30pm 22.5 25.7 18.9 80 2.3 CALM 0 4 0 2 1015.1 1015.1 0.0
27/08:00pm 22.9 26.0 18.7 77 2.7 CALM 0 0 0 0 1014.7 - 0.0
27/07:30pm 23.8 26.2 18.7 73 3.2 N 4 6 2 3 1014.1 1014.1 0.0
27/07:00pm 25.6 27.9 19.5 69 3.9 N 6 11 3 6 1013.6 - 0.0
27/06:30pm 25.9 27.7 19.5 68 4.1 N 9 15 5 8 1013.2 1013.2 0.0
27/06:00pm 26.8 29.1 19.9 66 4.5 N 7 13 4 7 1013.0 1013.0 0.0
27/05:30pm 27.2 29.1 19.8 64 4.8 NNW 9 15 5 8 1012.9 1012.9 0.0
27/05:00pm 27.4 29.0 19.2 61 5.3 NNW 9 17 5 9 1012.6 - 0.0
27/04:30pm 28.1 30.3 19.6 60 5.5 NNW 7 17 4 9 1012.4 1012.4 0.0
27/04:00pm 28.1 29.5 19.6 60 5.5 NNW 11 17 6 9 1012.5 - 0.0
27/03:30pm 28.6 30.4 20.3 60 5.5 N 11 19 6 10 1012.6 1012.6 0.0
27/03:00pm 28.6 29.8 19.8 59 5.7 N 13 26 7 14 1012.8 1012.8 0.0
27/02:30pm 29.8 31.7 20.6 57 6.1 N 11 15 6 8 1013.1 1013.1 0.0
27/02:00pm 31.9 32.0 15.4 37 10.2 ENE 9 15 5 8 1013.5 - 0.0
27/01:30pm 32.3 32.1 15.7 36 10.3 E 11 20 6 11 1014.1 1014.1 0.0
27/01:00pm 31.7 30.6 15.2 36 10.2 E 15 28 8 15 1014.6 - 0.0
27/12:30pm 31.2 30.1 16.4 41 9.3 E 17 26 9 14 1015.0 1015.0 0.0
27/12:00pm 30.6 30.4 16.6 43 8.8 E 13 22 7 12 1015.6 1015.6 0.0
27/11:30am 29.4 29.2 16.6 46 8.0 E 13 19 7 10 1016.2 1016.2 0.0
27/11:00am 28.8 29.1 18.0 52 6.9 E 13 19 7 10 1016.6 - 0.0
27/10:30am 28.4 30.0 19.1 57 6.0 E 9 17 5 9 1017.1 1017.1 0.0
27/10:00am 27.1 28.6 18.9 61 5.3 ESE 9 15 5 8 1017.3 - 0.0
27/09:30am 26.4 29.1 20.3 69 4.0 E 6 13 3 7 1017.3 1017.3 0.0
27/09:00am 25.3 28.6 20.8 76 2.9 SE 4 7 2 4 1017.1 1017.1 0.0
27/08:30am 24.1 27.5 21.0 83 2.0 SE 4 7 2 4 1017.0 1017.0 0.0
27/08:00am 21.6 25.9 21.1 97 0.3 CALM 0 0 0 0 1016.8 - 0.0
27/07:30am 19.9 23.2 19.1 95 0.5 CALM 0 0 0 0 1016.4 1016.4 0.0
27/07:00am 19.9 23.1 18.9 94 0.6 CALM 0 0 0 0 1016.2 - 0.0
27/06:30am 20.5 23.9 19.3 93 0.8 CALM 0 2 0 1 1016.1 1016.1 0.0
27/06:00am 21.1 24.3 19.7 92 0.9 SE 2 4 1 2 1015.9 1015.9 0.0
27/05:30am 21.2 24.8 19.8 92 0.9 CALM 0 2 0 1 1015.8 1015.8 0.0
27/05:00am 21.5 25.1 19.8 90 1.1 CALM 0 0 0 0 1015.7 - 0.0
27/04:30am 22.4 26.2 20.1 87 1.5 CALM 0 0 0 0 1015.6 1015.6 0.0
27/04:00am 23.5 26.8 20.8 85 1.8 NNE 4 6 2 3 1015.6 - 0.0
27/03:30am 23.9 27.0 21.0 84 1.9 NE 6 11 3 6 1015.7 1015.7 0.0
27/03:00am 23.4 27.1 21.5 89 1.3 ENE 4 7 2 4 1016.0 1016.0 0.0
27/02:30am 22.5 26.0 21.1 92 0.9 ENE 4 6 2 3 1016.1 1016.1 0.0
27/02:00am 22.3 25.8 21.1 93 0.8 ENE 4 6 2 3 1016.2 - 0.0
27/01:30am 21.4 24.7 20.0 92 0.9 E 2 6 1 3 1016.3 1016.3 0.0
27/01:00am 21.7 24.6 19.8 89 1.2 ESE 4 4 2 2 1016.4 - 0.0
27/12:30am 21.9 24.9 20.0 89 1.2 ESE 4 4 2 2 1016.6 1016.6 0.0
27/12:00am 21.6 25.1 19.5 88 1.3 CALM 0 4 0 2 1016.7 1016.7 0.0
 
Date/Time
CST
Tmp

°C
App
Tmp
°C
Dew
Point
°C
Rel
Hum
%
Delta-T

°C
Wind Press
QNH
hPa
Press
MSL
hPa
Rain
since
9 am
mm
Dir
 
Spd
km/h
Gust
km/h
Spd
kts
Gust
kts
26/11:30pm 21.5 24.5 19.2 87 1.5 SSE 2 4 1 2 1016.7 1016.7 0.0
26/11:00pm 22.3 25.4 19.5 84 1.8 SE 2 4 1 2 1016.6 - 0.0
26/10:30pm 22.9 26.9 20.6 87 1.5 CALM 0 4 0 2 1016.4 1016.4 0.0
26/10:00pm 21.8 25.3 20.3 91 1.0 SW 2 6 1 3 1016.6 - 0.0
26/09:30pm 20.8 23.5 18.6 87 1.4 WNW 2 4 1 2 1016.5 1016.5 0.0
26/09:00pm 21.1 24.1 18.5 85 1.6 CALM 0 4 0 2 1016.3 1016.3 0.0
26/08:30pm 21.6 24.3 18.6 83 1.9 NNW 2 6 1 3 1016.1 1016.1 0.0
26/08:00pm 22.1 24.5 18.7 81 2.1 NNW 4 4 2 2 1015.8 - 0.0
26/07:30pm 23.7 26.2 19.0 75 3.0 NW 4 4 2 2 1015.5 1015.5 0.0
26/07:00pm 24.5 27.1 19.3 73 3.3 NNW 4 7 2 4 1015.2 - 0.0
26/06:30pm 25.4 28.4 20.0 72 3.5 NW 4 9 2 5 1014.8 1014.8 0.0
26/06:00pm 26.5 29.0 20.3 68 4.1 NW 7 11 4 6 1014.4 1014.4 0.0
26/05:30pm 27.1 29.6 20.2 66 4.5 NW 7 11 4 6 1014.3 1014.3 0.0
26/05:00pm 27.4 29.4 20.0 64 4.8 NW 9 15 5 8 1014.0 - 0.0
26/04:30pm 27.7 29.9 20.3 64 4.9 NW 9 15 5 8 1013.8 1013.8 0.0
26/04:00pm 27.6 29.2 20.7 66 4.6 N 13 20 7 11 1013.5 - 0.0
26/03:30pm 28.2 30.4 21.2 65 4.7 N 11 22 6 12 1013.5 1013.5 0.0
26/03:00pm 29.3 30.5 20.7 59 5.7 W 15 26 8 14 1013.6 1013.6 0.0
26/02:30pm 31.4 29.9 14.1 35 10.5 E 15 20 8 11 1013.8 1013.8 0.0
26/02:00pm 30.8 29.1 14.8 37 9.8 ENE 17 24 9 13 1014.3 - 0.0
26/01:30pm 30.9 30.2 15.3 38 9.6 E 13 24 7 13 1014.7 1014.7 0.0
26/01:00pm 30.9 30.6 16.5 42 9.0 E 13 19 7 10 1015.3 - 0.0
26/12:30pm 29.9 30.6 18.0 48 7.6 E 11 19 6 10 1015.8 1015.8 0.0
26/12:00pm 29.1 30.2 18.8 53 6.6 E 11 17 6 9 1016.4 1016.4 0.0
26/11:30am 28.1 29.9 20.4 63 5.1 E 11 19 6 10 1016.8 1016.8 0.0
26/11:00am 27.5 29.7 21.1 68 4.2 E 11 17 6 9 1017.2 - 0.0
26/10:30am 26.4 28.4 20.7 71 3.7 ENE 11 20 6 11 1017.2 1017.2 0.0
26/10:00am 25.8 27.3 20.6 73 3.4 E 13 19 7 10 1017.4 - 0.0
26/09:30am 25.6 27.5 20.6 74 3.3 E 11 17 6 9 1017.5 1017.5 0.0
26/09:00am 24.6 27.5 21.1 81 2.3 E 7 11 4 6 1017.3 1017.3 0.0
26/08:30am 23.1 26.5 21.7 92 0.9 E 6 7 3 4 1017.0 1017.0 0.0
26/08:00am 21.8 25.5 21.5 98 0.2 ESE 4 7 2 4 1016.8 - 0.0
26/07:30am 20.4 23.0 20.1 98 0.2 ESE 6 7 3 4 1016.6 1016.6 0.0
26/07:00am 19.8 22.3 19.1 96 0.4 ESE 4 6 2 3 1016.4 - 0.0
26/06:30am 21.0 24.3 20.7 98 0.2 ESE 4 6 2 3 1016.2 1016.2 0.0
26/06:00am 20.6 23.7 20.3 98 0.2 E 4 6 2 3 1016.2 1016.2 0.0
26/05:30am 21.4 24.5 21.1 98 0.2 E 6 7 3 4 1016.0 1016.0 0.0
26/05:00am 20.7 23.3 20.4 98 0.2 E 7 11 4 6 1015.9 - 0.0
26/04:30am 19.1 21.2 18.1 94 0.6 E 4 4 2 2 1015.4 1015.4 0.0
26/04:00am 19.9 22.3 18.7 93 0.7 E 4 4 2 2 1015.6 - 0.0
26/03:30am 20.9 23.6 20.2 96 0.4 E 6 7 3 4 1015.8 1015.8 0.0
26/03:00am 20.6 23.3 19.4 93 0.8 ESE 4 6 2 3 1015.7 1015.7 0.0
26/02:30am 21.1 24.0 19.9 93 0.8 SE 4 6 2 3 1015.8 1015.8 0.0
26/02:00am 21.6 24.8 20.4 93 0.8 SSE 4 6 2 3 1015.6 - 0.0
26/01:30am 21.8 25.1 20.8 94 0.6 S 4 7 2 4 1015.7 1015.7 0.0
26/01:00am 21.8 25.3 21.1 96 0.5 SSE 4 6 2 3 1015.9 - 0.0
26/12:30am 21.1 24.0 19.9 93 0.8 SSE 4 6 2 3 1016.0 1016.0 0.0
26/12:00am 22.1 25.9 21.6 97 0.3 SSE 4 7 2 4 1016.1 1016.1 0.0
 
Date/Time
CST
Tmp

°C
App
Tmp
°C
Dew
Point
°C
Rel
Hum
%
Delta-T

°C
Wind Press
QNH
hPa
Press
MSL
hPa
Rain
since
9 am
mm
Dir
 
Spd
km/h
Gust
km/h
Spd
kts
Gust
kts
25/11:30pm 20.4 23.7 19.1 92 0.8 CALM 0 0 0 0 1016.2 1016.2 0.0
25/11:00pm 20.6 23.8 18.9 90 1.1 CALM 0 2 0 1 1016.2 - 0.0
25/10:30pm 20.7 23.8 18.6 88 1.3 CALM 0 0 0 0 1016.0 1016.0 0.0
25/10:00pm 20.8 23.9 18.7 88 1.3 CALM 0 0 0 0 1016.1 - 0.0
25/09:30pm 21.0 24.3 19.1 89 1.2 CALM 0 0 0 0 1016.1 1016.1 0.0
25/09:00pm 21.4 24.5 18.6 84 1.8 CALM 0 0 0 0 1015.8 1015.8 0.0
25/08:30pm 21.7 24.7 18.5 82 2.0 CALM 0 0 0 0 1015.4 1015.4 0.0
25/08:00pm 22.8 26.1 19.0 79 2.4 CALM 0 4 0 2 1015.0 - 0.0
25/07:30pm 24.4 27.3 19.9 76 2.9 W 4 6 2 3 1014.5 1014.5 0.0
25/07:00pm 25.0 27.6 20.0 74 3.2 W 6 11 3 6 1014.2 - 0.0
25/06:30pm 25.4 27.9 19.8 71 3.6 W 6 9 3 5 1014.2 1014.2 0.0
25/06:00pm 26.3 29.2 19.9 68 4.2 W 4 9 2 5 1014.2 1014.2 0.0

Latest Capital City Observations: Canberra | Sydney | Melbourne | Brisbane | Adelaide | Perth | Hobart | Darwin

Other Formats:

Comma delimited format used in spreadsheet applications
http://www.bom.gov.au/fwo/IDD60901/IDD60901.94116.axf

JavaScript Object Notation format (JSON) in row-major order
http://www.bom.gov.au/fwo/IDD60901/IDD60901.94116.json